| time (UTC) | temp F | wind direction | speed MPH | gust MPH | rain 1hr in | rain 24hr in | rain mn in | humidity % | barometer mb |
| 20260906213904 | 84 | 285 | 1.0 | 3.0 | 0.00 | 0.00 | 0.00 | 37 | 1305.0 |
| 20260906213359 | 84 | 228 | 2.0 | 5.0 | 0.00 | 0.00 | 0.00 | 36 | 1305.2 |
| 20260906212856 | 83 | 252 | 2.0 | 3.0 | 0.00 | 0.00 | 0.00 | 38 | 1305.2 |
| 20260906212352 | 84 | 251 | 3.0 | 6.0 | 0.00 | 0.00 | 0.00 | 37 | 1305.3 |
| 20260906211851 | 84 | 243 | 7.0 | 8.0 | 0.00 | 0.00 | 0.00 | 37 | 1305.1 |
| 20260906211347 | 83 | 256 | 1.0 | 5.0 | 0.00 | 0.00 | 0.00 | 38 | 1305.3 |
| 20260906210842 | 84 | 249 | 6.0 | 8.0 | 0.00 | 0.00 | 0.00 | 38 | 1305.3 |
| 20260906210337 | 84 | 319 | 2.0 | 3.0 | 0.00 | 0.00 | 0.00 | 37 | 1305.4 |
| 20260906205832 | 84 | 250 | 3.0 | 3.0 | 0.00 | 0.00 | 0.00 | 38 | 1305.6 |
| 20260906205328 | 84 | 227 | 6.0 | 7.0 | 0.00 | 0.00 | 0.00 | 39 | 1305.7 |
| 20260906204824 | 84 | 156 | 2.0 | 2.0 | 0.00 | 0.00 | 0.00 | 40 | 1305.7 |
| 20260906204323 | 85 | 322 | 1.0 | 2.0 | 0.00 | 0.00 | 0.00 | 39 | 1305.7 |
| 20260906203822 | 84 | 290 | 0.0 | 1.0 | 0.00 | 0.00 | 0.00 | 40 | 1306.1 |
| 20260906203318 | 84 | 232 | 2.0 | 3.0 | 0.00 | 0.00 | 0.00 | 40 | 1305.7 |
| 20260906202815 | 84 | 258 | 4.0 | 6.0 | 0.00 | 0.00 | 0.00 | 37 | 1305.9 |
| 20260906202314 | 84 | 286 | 3.0 | 6.0 | 0.00 | 0.00 | 0.00 | 39 | 1305.9 |
| 20260906201809 | 84 | 221 | 1.0 | 2.0 | 0.00 | 0.00 | 0.00 | 39 | 1305.7 |
| 20260906201308 | 84 | 254 | 5.0 | 7.0 | 0.00 | 0.00 | 0.00 | 38 | 1305.9 |
| 20260906200804 | 85 | 250 | 0.0 | 1.0 | 0.00 | 0.00 | 0.00 | 39 | 1305.8 |
| 20260906200259 | 84 | 265 | 3.0 | 3.0 | 0.00 | 0.00 | 0.00 | 39 | 1305.9 |
| 20260906195754 | 85 | 230 | 5.0 | 9.0 | 0.00 | 0.00 | 0.00 | 37 | 1306.1 |
| 20260906195251 | 86 | 275 | 1.0 | 2.0 | 0.00 | 0.00 | 0.00 | 36 | 1306.1 |
| 20260906194747 | 86 | 203 | 0.0 | 1.0 | 0.00 | 0.00 | 0.00 | 37 | 1306.1 |
| 20260906194242 | 86 | 269 | 1.0 | 2.0 | 0.00 | 0.00 | 0.00 | 36 | 1306.3 |
| 20260906193731 | 84 | 277 | 0.0 | 0.0 | 0.00 | 0.00 | 0.00 | 38 | 1306.2 |
| 20260906193226 | 84 | 283 | 0.0 | 0.0 | 0.00 | 0.00 | 0.00 | 38 | 1306.4 |
| 20260906192721 | 85 | 195 | 2.0 | 3.0 | 0.00 | 0.00 | 0.00 | 35 | 1306.3 |
| 20260906192216 | 85 | 256 | 0.0 | 0.0 | 0.00 | 0.00 | 0.00 | 36 | 1306.2 |
| 20260906191716 | 84 | 329 | 1.0 | 5.0 | 0.00 | 0.00 | 0.00 | 37 | 1306.7 |
| 20260906191215 | 83 | 272 | 1.0 | 2.0 | 0.00 | 0.00 | 0.00 | 37 | 1306.5 |
| 20260906190710 | 84 | 281 | 3.0 | 5.0 | 0.00 | 0.00 | 0.00 | 36 | 1306.5 |
| 20260906190205 | 84 | 198 | 3.0 | 6.0 | 0.00 | 0.00 | 0.00 | 36 | 1306.5 |
| 20260906185703 | 85 | 292 | 1.0 | 2.0 | 0.00 | 0.00 | 0.00 | 35 | 1306.8 |
| 20260906185202 | 85 | 256 | 1.0 | 2.0 | 0.00 | 0.00 | 0.00 | 35 | 1306.9 |
| 20260906184657 | 84 | 315 | 0.0 | 1.0 | 0.00 | 0.00 | 0.00 | 38 | 1307.0 |
| 20260906184153 | 84 | 283 | 0.0 | 0.0 | 0.00 | 0.00 | 0.00 | 38 | 1306.9 |
| 20260906183649 | 83 | 240 | 0.0 | 1.0 | 0.00 | 0.00 | 0.00 | 35 | 1307.0 |
| 20260906183144 | 84 | 255 | 1.0 | 2.0 | 0.00 | 0.00 | 0.00 | 36 | 1307.1 |
| 20260906182644 | 84 | 275 | 0.0 | 0.0 | 0.00 | 0.00 | 0.00 | 37 | 1307.4 |
| 20260906182140 | 84 | 271 | 1.0 | 2.0 | 0.00 | 0.00 | 0.00 | 36 | 1307.3 |
| 20260906181635 | 84 | 263 | 0.0 | 0.0 | 0.00 | 0.00 | 0.00 | 37 | 1307.4 |
| 20260906181131 | 83 | 274 | 0.0 | 0.0 | 0.00 | 0.00 | 0.00 | 38 | 1307.6 |
| 20260906180626 | 84 | 102 | 1.0 | 3.0 | 0.00 | 0.00 | 0.00 | 36 | 1307.8 |
| 20260906180121 | 83 | 258 | 0.0 | 0.0 | 0.00 | 0.00 | 0.00 | 36 | 1307.6 |
| 20260906175619 | 81 | 274 | 0.0 | 1.0 | 0.00 | 0.00 | 0.00 | 38 | 1307.9 |
| 20260906175114 | 83 | 236 | 2.0 | 6.0 | 0.00 | 0.00 | 0.00 | 37 | 1307.9 |
| 20260906174612 | 84 | 261 | 0.0 | 0.0 | 0.00 | 0.00 | 0.00 | 39 | 1307.8 |
| 20260906174101 | 83 | 256 | 0.0 | 0.0 | 0.00 | 0.00 | 0.00 | 37 | 1308.0 |
| 20260906173556 | 81 | 267 | 0.0 | 0.0 | 0.00 | 0.00 | 0.00 | 39 | 1307.8 |
| 20260906173053 | 82 | 261 | 0.0 | 1.0 | 0.00 | 0.00 | 0.00 | 37 | 1308.4 |
| 20260906172552 | 82 | 257 | 0.0 | 2.0 | 0.00 | 0.00 | 0.00 | 38 | 1308.1 |
| 20260906172048 | 82 | 260 | 0.0 | 0.0 | 0.00 | 0.00 | 0.00 | 38 | 1308.1 |
| 20260906171547 | 82 | 252 | 1.0 | 3.0 | 0.00 | 0.00 | 0.00 | 39 | 1308.4 |
| 20260906171043 | 82 | 212 | 3.0 | 3.0 | 0.00 | 0.00 | 0.00 | 36 | 1308.2 |
| 20260906170539 | 82 | 259 | 0.0 | 1.0 | 0.00 | 0.00 | 0.00 | 37 | 1308.2 |
| 20260906170037 | 81 | 256 | 0.0 | 0.0 | 0.00 | 0.00 | 0.00 | 37 | 1308.2 |
| 20260906165534 | 81 | 262 | 1.0 | 3.0 | 0.00 | 0.00 | 0.00 | 37 | 1308.5 |
| 20260906165029 | 82 | 32 | 0.0 | 0.0 | 0.00 | 0.00 | 0.00 | 36 | 1308.2 |
| 20260906164529 | 81 | 274 | 0.0 | 0.0 | 0.00 | 0.00 | 0.00 | 39 | 1308.6 |
| 20260906164025 | 81 | 238 | 0.0 | 0.0 | 0.00 | 0.00 | 0.00 | 37 | 1308.4 |
| 20260906163520 | 82 | 281 | 0.0 | 0.0 | 0.00 | 0.00 | 0.00 | 38 | 1308.5 |
| 20260906163016 | 80 | 260 | 0.0 | 0.0 | 0.00 | 0.00 | 0.00 | 36 | 1308.6 |
| 20260906162512 | 80 | 247 | 0.0 | 0.0 | 0.00 | 0.00 | 0.00 | 40 | 1308.1 |
| 20260906162007 | 80 | 273 | 0.0 | 0.0 | 0.00 | 0.00 | 0.00 | 40 | 1308.4 |
| 20260906161502 | 79 | 258 | 2.0 | 3.0 | 0.00 | 0.00 | 0.00 | 41 | 1308.4 |
| 20260906161001 | 79 | 263 | 0.0 | 0.0 | 0.00 | 0.00 | 0.00 | 39 | 1308.5 |
| 20260906160454 | 79 | 255 | 0.0 | 0.0 | 0.00 | 0.00 | 0.00 | 41 | 1308.1 |
| 20260906155952 | 78 | 275 | 0.0 | 0.0 | 0.00 | 0.00 | 0.00 | 40 | 1308.4 |
| 20260906155451 | 79 | 261 | 0.0 | 0.0 | 0.00 | 0.00 | 0.00 | 38 | 1308.2 |
| 20260906154948 | 81 | 274 | 0.0 | 0.0 | 0.00 | 0.00 | 0.00 | 39 | 1308.4 |
| 20260906154443 | 79 | 275 | 0.0 | 0.0 | 0.00 | 0.00 | 0.00 | 37 | 1308.1 |
| 20260906153941 | 79 | 262 | 0.0 | 0.0 | 0.00 | 0.00 | 0.00 | 38 | 1308.2 |
| 20260906153440 | 82 | 257 | 0.0 | 0.0 | 0.00 | 0.00 | 0.00 | 37 | 1308.0 |
| 20260906152936 | 81 | 342 | 0.0 | 0.0 | 0.00 | 0.00 | 0.00 | 37 | 1308.1 |
| 20260906152435 | 79 | 253 | 0.0 | 0.0 | 0.00 | 0.00 | 0.00 | 39 | 1308.0 |
| 20260906151934 | 80 | 267 | 0.0 | 0.0 | 0.00 | 0.00 | 0.00 | 39 | 1308.1 |
| 20260906151430 | 80 | 274 | 0.0 | 0.0 | 0.00 | 0.00 | 0.00 | 39 | 1308.0 |
| 20260906150926 | 78 | 277 | 0.0 | 0.0 | 0.00 | 0.00 | 0.00 | 40 | 1308.0 |
| 20260906150420 | 78 | 275 | 0.0 | 0.0 | 0.00 | 0.00 | 0.00 | 40 | 1308.1 |
| 20260906145915 | 77 | 278 | 0.0 | 0.0 | 0.00 | 0.00 | 0.00 | 41 | 1308.0 |
| 20260906145414 | 77 | 279 | 0.0 | 0.0 | 0.00 | 0.00 | 0.00 | 41 | 1308.2 |
| 20260906144908 | 76 | 271 | 0.0 | 0.0 | 0.00 | 0.00 | 0.00 | 41 | 1308.2 |
| 20260906144403 | 76 | 279 | 0.0 | 0.0 | 0.00 | 0.00 | 0.00 | 43 | 1308.1 |
| 20260906143858 | 74 | 274 | 0.0 | 0.0 | 0.00 | 0.00 | 0.00 | 45 | 1307.9 |
| 20260906143354 | 73 | 29 | 0.0 | 0.0 | 0.00 | 0.00 | 0.00 | 47 | 1307.9 |
| 20260906142850 | 73 | 304 | 0.0 | 0.0 | 0.00 | 0.00 | 0.00 | 47 | 1307.9 |
| 20260906142345 | 71 | 279 | 0.0 | 0.0 | 0.00 | 0.00 | 0.00 | 50 | 1307.9 |
| 20260906141844 | 69 | 316 | 0.0 | 0.0 | 0.00 | 0.00 | 0.00 | 52 | 1307.8 |
| 20260906141339 | 66 | 277 | 0.0 | 0.0 | 0.00 | 0.00 | 0.00 | 54 | 1307.9 |
| 20260906140839 | 66 | 321 | 0.0 | 0.0 | 0.00 | 0.00 | 0.00 | 57 | 1307.9 |
| 20260906140333 | 65 | 291 | 0.0 | 0.0 | 0.00 | 0.00 | 0.00 | 58 | 1308.0 |
| 20260906135830 | 65 | 279 | 0.0 | 0.0 | 0.00 | 0.00 | 0.00 | 58 | 1307.9 |
| 20260906135326 | 64 | 291 | 0.0 | 0.0 | 0.00 | 0.00 | 0.00 | 56 | 1308.1 |
| 20260906134821 | 64 | 283 | 0.0 | 0.0 | 0.00 | 0.00 | 0.00 | 58 | 1307.9 |
| 20260906134316 | 63 | 283 | 0.0 | 0.0 | 0.00 | 0.00 | 0.00 | 59 | 1307.6 |
| 20260906133812 | 63 | 282 | 0.0 | 0.0 | 0.00 | 0.00 | 0.00 | 59 | 1307.6 |
| 20260906133308 | 63 | 308 | 0.0 | 0.0 | 0.00 | 0.00 | 0.00 | 59 | 1307.6 |
| 20260906132802 | 63 | 295 | 0.0 | 0.0 | 0.00 | 0.00 | 0.00 | 59 | 1307.6 |
| 20260906132257 | 63 | 345 | 1.0 | 2.0 | 0.00 | 0.00 | 0.00 | 59 | 1307.8 |
| 20260906131748 | 63 | 271 | 0.0 | 0.0 | 0.00 | 0.00 | 0.00 | 58 | 1307.3 |
| 20260906131248 | 63 | 269 | 0.0 | 0.0 | 0.00 | 0.00 | 0.00 | 58 | 1307.5 |
| 20260906130743 | 63 | 308 | 0.0 | 0.0 | 0.00 | 0.00 | 0.00 | 57 | 1307.4 |
| 20260906130238 | 63 | 290 | 0.0 | 0.0 | 0.00 | 0.00 | 0.00 | 58 | 1307.4 |
| 20260906125736 | 63 | 311 | 0.0 | 0.0 | 0.00 | 0.00 | 0.00 | 58 | 1307.4 |
| 20260906125235 | 63 | 281 | 0.0 | 0.0 | 0.00 | 0.00 | 0.00 | 58 | 1307.3 |
| 20260906124729 | 63 | 265 | 0.0 | 0.0 | 0.00 | 0.00 | 0.00 | 56 | 1307.5 |
| 20260906124226 | 63 | 285 | 0.0 | 0.0 | 0.00 | 0.00 | 0.00 | 57 | 1307.6 |
| 20260906123724 | 63 | 287 | 1.0 | 2.0 | 0.00 | 0.00 | 0.00 | 57 | 1307.5 |
| 20260906123220 | 63 | 301 | 0.0 | 0.0 | 0.00 | 0.00 | 0.00 | 57 | 1307.0 |
| 20260906122719 | 64 | 291 | 0.0 | 0.0 | 0.00 | 0.00 | 0.00 | 56 | 1307.3 |
| 20260906122214 | 64 | 124 | 0.0 | 0.0 | 0.00 | 0.00 | 0.00 | 56 | 1307.3 |
| 20260906121711 | 63 | 276 | 0.0 | 0.0 | 0.00 | 0.00 | 0.00 | 56 | 1307.3 |
| 20260906121207 | 63 | 283 | 0.0 | 0.0 | 0.00 | 0.00 | 0.00 | 56 | 1307.4 |
| 20260906120702 | 63 | 275 | 0.0 | 0.0 | 0.00 | 0.00 | 0.00 | 56 | 1307.1 |
| 20260906120159 | 63 | 291 | 0.0 | 0.0 | 0.00 | 0.00 | 0.00 | 56 | 1307.3 |
| 20260906115654 | 63 | 299 | 0.0 | 0.0 | 0.00 | 0.00 | 0.00 | 56 | 1307.1 |
| 20260906115149 | 62 | 280 | 0.0 | 0.0 | 0.00 | 0.00 | 0.00 | 57 | 1307.4 |
| 20260906114648 | 62 | 282 | 0.0 | 0.0 | 0.00 | 0.00 | 0.00 | 58 | 1307.1 |
| 20260906114144 | 62 | 286 | 0.0 | 0.0 | 0.00 | 0.00 | 0.00 | 58 | 1307.1 |
| 20260906113643 | 63 | 280 | 0.0 | 0.0 | 0.00 | 0.00 | 0.00 | 57 | 1307.0 |
| 20260906113144 | 63 | 285 | 0.0 | 0.0 | 0.00 | 0.00 | 0.00 | 55 | 1307.3 |
| 20260906112643 | 63 | 284 | 0.0 | 0.0 | 0.00 | 0.00 | 0.00 | 55 | 1307.1 |
| 20260906112140 | 63 | 285 | 0.0 | 0.0 | 0.00 | 0.00 | 0.00 | 56 | 1306.9 |
| 20260906111639 | 63 | 292 | 0.0 | 0.0 | 0.00 | 0.00 | 0.00 | 57 | 1307.0 |
| 20260906111134 | 63 | 277 | 0.0 | 0.0 | 0.00 | 0.00 | 0.00 | 56 | 1306.9 |
| 20260906110629 | 63 | 338 | 0.0 | 0.0 | 0.00 | 0.00 | 0.00 | 56 | 1306.7 |
| 20260906110124 | 63 | 296 | 0.0 | 0.0 | 0.00 | 0.00 | 0.00 | 56 | 1307.1 |
| 20260906105618 | 63 | 283 | 0.0 | 0.0 | 0.00 | 0.00 | 0.00 | 58 | 1307.0 |
| 20260906105115 | 63 | 306 | 0.0 | 0.0 | 0.00 | 0.00 | 0.00 | 58 | 1306.8 |
| 20260906104614 | 63 | 312 | 0.0 | 0.0 | 0.00 | 0.00 | 0.00 | 59 | 1306.5 |
| 20260906104108 | 62 | 306 | 0.0 | 0.0 | 0.00 | 0.00 | 0.00 | 59 | 1306.9 |
| 20260906103606 | 62 | 288 | 0.0 | 0.0 | 0.00 | 0.00 | 0.00 | 61 | 1306.8 |
| 20260906103101 | 63 | 279 | 0.0 | 0.0 | 0.00 | 0.00 | 0.00 | 61 | 1306.9 |
| 20260906102601 | 62 | 316 | 0.0 | 0.0 | 0.00 | 0.00 | 0.00 | 61 | 1306.7 |
| 20260906102056 | 62 | 280 | 0.0 | 0.0 | 0.00 | 0.00 | 0.00 | 63 | 1307.0 |
| 20260906101551 | 63 | 286 | 0.0 | 0.0 | 0.00 | 0.00 | 0.00 | 62 | 1307.0 |
| 20260906101045 | 64 | 281 | 0.0 | 0.0 | 0.00 | 0.00 | 0.00 | 60 | 1307.1 |
| 20260906100541 | 65 | 275 | 0.0 | 0.0 | 0.00 | 0.00 | 0.00 | 59 | 1307.1 |
| 20260906100042 | 65 | 277 | 0.0 | 0.0 | 0.00 | 0.00 | 0.00 | 58 | 1307.1 |
| 20260906095536 | 65 | 296 | 0.0 | 0.0 | 0.00 | 0.00 | 0.00 | 59 | 1307.4 |
| 20260906095031 | 64 | 273 | 0.0 | 0.0 | 0.00 | 0.00 | 0.00 | 59 | 1307.5 |
| 20260906094525 | 64 | 283 | 0.0 | 0.0 | 0.00 | 0.00 | 0.00 | 60 | 1307.3 |
| 20260906094021 | 64 | 280 | 0.0 | 0.0 | 0.00 | 0.00 | 0.00 | 62 | 1306.9 |
| 20260906093517 | 64 | 287 | 0.0 | 0.0 | 0.00 | 0.00 | 0.00 | 61 | 1307.0 |
| 20260906093016 | 64 | 286 | 0.0 | 0.0 | 0.00 | 0.00 | 0.00 | 60 | 1307.4 |
| 20260906092511 | 64 | 285 | 0.0 | 0.0 | 0.00 | 0.00 | 0.00 | 60 | 1307.0 |
| 20260906092006 | 65 | 266 | 0.0 | 0.0 | 0.00 | 0.00 | 0.00 | 61 | 1307.3 |
| 20260906091502 | 64 | 283 | 0.0 | 0.0 | 0.00 | 0.00 | 0.00 | 62 | 1307.1 |
| 20260906090958 | 64 | 322 | 0.0 | 0.0 | 0.00 | 0.00 | 0.00 | 62 | 1307.0 |
| 20260906090453 | 64 | 276 | 0.0 | 0.0 | 0.00 | 0.00 | 0.00 | 64 | 1306.9 |
| 20260906085953 | 65 | 288 | 0.0 | 0.0 | 0.00 | 0.00 | 0.00 | 67 | 1307.3 |
| 20260906085452 | 65 | 291 | 0.0 | 0.0 | 0.00 | 0.00 | 0.00 | 66 | 1306.9 |
| 20260906084951 | 65 | 304 | 0.0 | 0.0 | 0.00 | 0.00 | 0.00 | 66 | 1307.1 |
| 20260906084447 | 65 | 288 | 0.0 | 0.0 | 0.00 | 0.00 | 0.00 | 65 | 1307.1 |
| 20260906083945 | 65 | 290 | 0.0 | 0.0 | 0.00 | 0.00 | 0.00 | 64 | 1306.9 |
| 20260906083441 | 65 | 298 | 1.0 | 2.0 | 0.00 | 0.00 | 0.00 | 64 | 1307.0 |
| 20260906082940 | 64 | 275 | 0.0 | 2.0 | 0.00 | 0.00 | 0.00 | 65 | 1307.0 |
| 20260906082436 | 64 | 11 | 0.0 | 0.0 | 0.00 | 0.00 | 0.00 | 66 | 1307.1 |
| 20260906081931 | 64 | 277 | 0.0 | 0.0 | 0.00 | 0.00 | 0.00 | 67 | 1306.8 |
| 20260906081427 | 64 | 296 | 0.0 | 0.0 | 0.00 | 0.00 | 0.00 | 69 | 1307.3 |
| 20260906080923 | 64 | 276 | 0.0 | 0.0 | 0.00 | 0.00 | 0.00 | 71 | 1307.1 |
| 20260906080419 | 64 | 287 | 0.0 | 0.0 | 0.00 | 0.00 | 0.00 | 73 | 1307.3 |
| 20260906075918 | 63 | 281 | 0.0 | 0.0 | 0.00 | 0.00 | 0.00 | 75 | 1307.3 |
| 20260906075413 | 63 | 314 | 0.0 | 0.0 | 0.00 | 0.00 | 0.00 | 77 | 1307.1 |
| 20260906074908 | 63 | 280 | 0.0 | 0.0 | 0.00 | 0.00 | 0.00 | 76 | 1307.3 |
| 20260906074403 | 62 | 282 | 0.0 | 0.0 | 0.00 | 0.00 | 0.00 | 76 | 1307.1 |
| 20260906073902 | 62 | 283 | 0.0 | 0.0 | 0.00 | 0.00 | 0.00 | 75 | 1307.1 |
| 20260906073357 | 62 | 281 | 0.0 | 0.0 | 0.00 | 0.00 | 0.00 | 76 | 1307.5 |
| 20260906072853 | 62 | 289 | 0.0 | 0.0 | 0.00 | 0.00 | 0.00 | 77 | 1307.1 |
| 20260906072348 | 62 | 280 | 0.0 | 0.0 | 0.00 | 0.00 | 0.00 | 78 | 1307.5 |
| 20260906071844 | 63 | 290 | 0.0 | 0.0 | 0.00 | 0.00 | 0.00 | 77 | 1307.4 |
| 20260906071339 | 63 | 282 | 0.0 | 0.0 | 0.00 | 0.00 | 0.00 | 75 | 1307.4 |
| 20260906070835 | 63 | 276 | 0.0 | 0.0 | 0.00 | 0.00 | 0.00 | 76 | 1307.5 |
| 20260906070331 | 63 | 278 | 0.0 | 0.0 | 0.00 | 0.00 | 0.00 | 76 | 1307.5 |
| 20260906065826 | 63 | 341 | 0.0 | 0.0 | 0.00 | 0.00 | 0.00 | 77 | 1307.6 |
| 20260906065321 | 63 | 285 | 0.0 | 0.0 | 0.00 | 0.00 | 0.00 | 77 | 1307.6 |
| 20260906064817 | 64 | 292 | 0.0 | 0.0 | 0.00 | 0.00 | 0.00 | 76 | 1307.9 |
| 20260906064313 | 64 | 284 | 0.0 | 0.0 | 0.00 | 0.00 | 0.00 | 74 | 1308.0 |
| 20260906063812 | 64 | 282 | 0.0 | 0.0 | 0.00 | 0.00 | 0.00 | 72 | 1307.8 |
| 20260906063308 | 64 | 290 | 0.0 | 0.0 | 0.00 | 0.00 | 0.00 | 72 | 1307.8 |
| 20260906062803 | 65 | 285 | 0.0 | 0.0 | 0.00 | 0.00 | 0.00 | 72 | 1307.5 |
| 20260906062305 | 65 | 282 | 0.0 | 0.0 | 0.00 | 0.00 | 0.00 | 69 | 1307.5 |
| 20260906061758 | 66 | 324 | 0.0 | 0.0 | 0.00 | 0.00 | 0.00 | 68 | 1307.5 |
| 20260906061255 | 66 | 88 | 0.0 | 0.0 | 0.00 | 0.00 | 0.00 | 68 | 1307.4 |
| 20260906060749 | 66 | 247 | 0.0 | 0.0 | 0.00 | 0.00 | 0.00 | 68 | 1307.5 |
| 20260906060247 | 66 | 282 | 0.0 | 0.0 | 0.00 | 0.00 | 0.00 | 68 | 1307.3 |
| 20260906055743 | 67 | 292 | 0.0 | 0.0 | 0.00 | 0.00 | 0.00 | 67 | 1307.6 |
| 20260906055237 | 67 | 280 | 0.0 | 0.0 | 0.00 | 0.00 | 0.00 | 67 | 1307.3 |
| 20260906054733 | 67 | 320 | 0.0 | 0.0 | 0.00 | 0.00 | 0.00 | 67 | 1307.3 |
| 20260906054228 | 67 | 33 | 0.0 | 0.0 | 0.00 | 0.00 | 0.00 | 67 | 1307.1 |
| 20260906053725 | 67 | 13 | 0.0 | 0.0 | 0.00 | 0.00 | 0.00 | 68 | 1307.3 |
| 20260906053220 | 66 | 103 | 0.0 | 0.0 | 0.00 | 0.00 | 0.00 | 69 | 1307.4 |
| 20260906052715 | 67 | 291 | 0.0 | 0.0 | 0.00 | 0.00 | 0.00 | 69 | 1307.0 |
| 20260906052211 | 67 | 102 | 0.0 | 0.0 | 0.00 | 0.00 | 0.00 | 68 | 1307.1 |
| 20260906051708 | 68 | 287 | 0.0 | 0.0 | 0.00 | 0.00 | 0.00 | 67 | 1307.0 |
| 20260906051207 | 67 | 338 | 0.0 | 0.0 | 0.00 | 0.00 | 0.00 | 67 | 1307.4 |
| 20260906050703 | 66 | 295 | 0.0 | 0.0 | 0.00 | 0.00 | 0.00 | 69 | 1307.3 |
| 20260906050158 | 66 | 283 | 0.0 | 0.0 | 0.00 | 0.00 | 0.00 | 71 | 1307.1 |
| 20260906045656 | 66 | 284 | 0.0 | 0.0 | 0.00 | 0.00 | 0.00 | 70 | 1307.4 |
| 20260906045151 | 67 | 284 | 0.0 | 0.0 | 0.00 | 0.00 | 0.00 | 68 | 1307.4 |
| 20260906044648 | 68 | 283 | 0.0 | 0.0 | 0.00 | 0.00 | 0.00 | 66 | 1307.6 |
| 20260906044142 | 66 | 176 | 0.0 | 0.0 | 0.00 | 0.00 | 0.00 | 68 | 1307.9 |
| 20260906043639 | 66 | 286 | 0.0 | 0.0 | 0.00 | 0.00 | 0.00 | 69 | 1307.6 |
| 20260906043134 | 68 | 280 | 0.0 | 0.0 | 0.00 | 0.00 | 0.00 | 68 | 1307.5 |
| 20260906042633 | 68 | 277 | 0.0 | 0.0 | 0.00 | 0.00 | 0.00 | 67 | 1307.8 |
| 20260906042127 | 68 | 282 | 0.0 | 0.0 | 0.00 | 0.00 | 0.00 | 67 | 1307.6 |
| 20260906041624 | 68 | 279 | 0.0 | 0.0 | 0.00 | 0.00 | 0.00 | 67 | 1307.6 |
| 20260906041123 | 67 | 282 | 0.0 | 0.0 | 0.00 | 0.00 | 0.00 | 68 | 1307.6 |
| 20260906040620 | 68 | 284 | 0.0 | 0.0 | 0.00 | 0.00 | 0.00 | 68 | 1307.6 |
| 20260906040115 | 67 | 295 | 0.0 | 0.0 | 0.00 | 0.00 | 0.00 | 69 | 1307.9 |
| 20260906035610 | 67 | 272 | 0.0 | 0.0 | 0.00 | 0.00 | 0.00 | 70 | 1307.8 |
| 20260906035105 | 68 | 280 | 0.0 | 0.0 | 0.00 | 0.00 | 0.00 | 68 | 1308.0 |
| 20260906034600 | 68 | 279 | 0.0 | 0.0 | 0.00 | 0.00 | 0.00 | 68 | 1307.9 |
| 20260906034054 | 68 | 279 | 0.0 | 0.0 | 0.00 | 0.00 | 0.00 | 67 | 1308.0 |
| 20260906033550 | 69 | 281 | 0.0 | 0.0 | 0.00 | 0.00 | 0.00 | 66 | 1307.6 |
| 20260906033045 | 69 | 281 | 0.0 | 0.0 | 0.00 | 0.00 | 0.00 | 66 | 1307.8 |
| 20260906032542 | 69 | 279 | 0.0 | 0.0 | 0.00 | 0.00 | 0.00 | 65 | 1307.6 |
| 20260906032036 | 70 | 281 | 0.0 | 0.0 | 0.00 | 0.00 | 0.00 | 65 | 1307.5 |
| 20260906031532 | 71 | 285 | 0.0 | 0.0 | 0.00 | 0.00 | 0.00 | 64 | 1307.5 |
| 20260906031028 | 71 | 300 | 0.0 | 0.0 | 0.00 | 0.00 | 0.00 | 63 | 1307.6 |
| 20260906030527 | 71 | 313 | 0.0 | 0.0 | 0.00 | 0.00 | 0.00 | 62 | 1307.5 |
| 20260906030026 | 71 | 288 | 0.0 | 0.0 | 0.00 | 0.00 | 0.00 | 62 | 1307.3 |
| 20260906025526 | 71 | 38 | 0.0 | 0.0 | 0.00 | 0.00 | 0.00 | 62 | 1307.1 |
| 20260906025023 | 72 | 290 | 0.0 | 0.0 | 0.00 | 0.00 | 0.00 | 62 | 1307.0 |
| 20260906024520 | 72 | 348 | 0.0 | 0.0 | 0.00 | 0.00 | 0.00 | 62 | 1306.9 |
| 20260906024020 | 72 | 12 | 0.0 | 1.0 | 0.00 | 0.00 | 0.00 | 62 | 1307.0 |
| 20260906023516 | 72 | 298 | 0.0 | 0.0 | 0.00 | 0.00 | 0.00 | 61 | 1306.9 |
| 20260906023011 | 73 | 91 | 0.0 | 0.0 | 0.00 | 0.00 | 0.00 | 60 | 1306.8 |
| 20260906022506 | 73 | 277 | 0.0 | 0.0 | 0.00 | 0.00 | 0.00 | 59 | 1306.9 |
| 20260906022001 | 73 | 274 | 1.0 | 2.0 | 0.00 | 0.00 | 0.00 | 57 | 1306.8 |
| 20260906021455 | 74 | 265 | 0.0 | 1.0 | 0.00 | 0.00 | 0.00 | 52 | 1306.7 |
| 20260906020951 | 74 | 346 | 0.0 | 1.0 | 0.00 | 0.00 | 0.00 | 43 | 1306.4 |
| 20260906020444 | 73 | 262 | 0.0 | 0.0 | 0.00 | 0.00 | 0.00 | 37 | 1306.4 |
| 20260906015944 | 72 | 282 | 0.0 | 0.0 | 0.00 | 0.00 | 0.00 | 39 | 1306.4 |
| 20260906015444 | 73 | 280 | 0.0 | 0.0 | 0.00 | 0.00 | 0.00 | 38 | 1305.9 |
| 20260906014944 | 73 | 284 | 0.0 | 0.0 | 0.00 | 0.00 | 0.00 | 38 | 1306.1 |
| 20260906014438 | 74 | 271 | 0.0 | 0.0 | 0.00 | 0.00 | 0.00 | 37 | 1306.1 |
| 20260906013934 | 74 | 280 | 0.0 | 0.0 | 0.00 | 0.00 | 0.00 | 36 | 1305.8 |
| 20260906013429 | 75 | 276 | 0.0 | 0.0 | 0.00 | 0.00 | 0.00 | 36 | 1305.8 |
| 20260906012925 | 75 | 278 | 0.0 | 0.0 | 0.00 | 0.00 | 0.00 | 37 | 1305.7 |
| 20260906012425 | 75 | 292 | 0.0 | 0.0 | 0.00 | 0.00 | 0.00 | 36 | 1305.9 |
| 20260906011924 | 76 | 282 | 0.0 | 0.0 | 0.00 | 0.00 | 0.00 | 36 | 1306.1 |
| 20260906011420 | 76 | 280 | 0.0 | 0.0 | 0.00 | 0.00 | 0.00 | 36 | 1306.2 |
| 20260906010915 | 77 | 277 | 0.0 | 0.0 | 0.00 | 0.00 | 0.00 | 35 | 1306.1 |
| 20260906010411 | 77 | 300 | 0.0 | 0.0 | 0.00 | 0.00 | 0.00 | 35 | 1306.3 |
| 20260906005907 | 78 | 263 | 0.0 | 0.0 | 0.00 | 0.00 | 0.00 | 34 | 1306.2 |
| 20260906005406 | 79 | 342 | 0.0 | 0.0 | 0.00 | 0.00 | 0.00 | 34 | 1306.4 |
| 20260906004904 | 80 | 305 | 0.0 | 0.0 | 0.00 | 0.00 | 0.00 | 34 | 1306.3 |
| 20260906004359 | 80 | 277 | 0.0 | 0.0 | 0.00 | 0.00 | 0.00 | 34 | 1306.3 |
| 20260906003854 | 78 | 298 | 0.0 | 0.0 | 0.00 | 0.00 | 0.00 | 34 | 1306.2 |
| 20260906003349 | 79 | 278 | 0.0 | 0.0 | 0.00 | 0.00 | 0.00 | 35 | 1306.5 |
| 20260906002845 | 80 | 296 | 0.0 | 0.0 | 0.00 | 0.00 | 0.00 | 34 | 1306.5 |
| 20260906002344 | 81 | 355 | 0.0 | 1.0 | 0.00 | 0.00 | 0.00 | 33 | 1306.5 |
| 20260906001840 | 81 | 32 | 1.0 | 1.0 | 0.00 | 0.00 | 0.00 | 33 | 1306.1 |
| 20260906001336 | 80 | 309 | 0.0 | 0.0 | 0.00 | 0.00 | 0.00 | 34 | 1306.3 |
| 20260906000830 | 80 | 281 | 0.0 | 0.0 | 0.00 | 0.00 | 0.00 | 34 | 1306.2 |
| 20260906000326 | 80 | 241 | 0.0 | 0.0 | 0.00 | 0.00 | 0.00 | 33 | 1306.3 |
| 20260905235825 | 80 | 267 | 0.0 | 0.0 | 0.00 | 0.00 | 0.00 | 34 | 1306.3 |
| 20260905235320 | 80 | 283 | 0.0 | 0.0 | 0.00 | 0.00 | 0.00 | 35 | 1306.2 |
| 20260905234815 | 79 | 279 | 0.0 | 0.0 | 0.00 | 0.00 | 0.00 | 32 | 1306.2 |
| 20260905234310 | 79 | 296 | 0.0 | 0.0 | 0.00 | 0.00 | 0.00 | 36 | 1305.9 |
| 20260905233805 | 79 | 281 | 0.0 | 0.0 | 0.00 | 0.00 | 0.00 | 36 | 1305.9 |
| 20260905233300 | 79 | 286 | 0.0 | 0.0 | 0.00 | 0.00 | 0.00 | 34 | 1306.1 |
| 20260905232759 | 80 | 114 | 0.0 | 0.0 | 0.00 | 0.00 | 0.00 | 33 | 1306.2 |
| 20260905232255 | 80 | 283 | 0.0 | 0.0 | 0.00 | 0.00 | 0.00 | 34 | 1305.9 |
| 20260905231751 | 80 | 284 | 0.0 | 0.0 | 0.00 | 0.00 | 0.00 | 33 | 1305.8 |
| 20260905231245 | 81 | 280 | 0.0 | 0.0 | 0.00 | 0.00 | 0.00 | 34 | 1305.9 |
| 20260905230742 | 81 | 82 | 0.0 | 0.0 | 0.00 | 0.00 | 0.00 | 29 | 1305.7 |
| 20260905230234 | 80 | 304 | 0.0 | 0.0 | 0.00 | 0.00 | 0.00 | 30 | 1306.2 |
| 20260905225734 | 81 | 267 | 0.0 | 0.0 | 0.00 | 0.00 | 0.00 | 30 | 1305.8 |
| 20260905225229 | 81 | 277 | 0.0 | 0.0 | 0.00 | 0.00 | 0.00 | 32 | 1306.1 |
| 20260905224728 | 81 | 286 | 0.0 | 0.0 | 0.00 | 0.00 | 0.00 | 33 | 1306.1 |
| 20260905224224 | 83 | 274 | 0.0 | 0.0 | 0.00 | 0.00 | 0.00 | 32 | 1306.4 |
| 20260905223719 | 83 | 304 | 0.0 | 0.0 | 0.00 | 0.00 | 0.00 | 32 | 1306.1 |
| 20260905223216 | 81 | 326 | 0.0 | 0.0 | 0.00 | 0.00 | 0.00 | 34 | 1306.3 |
| 20260905222712 | 81 | 288 | 0.0 | 0.0 | 0.00 | 0.00 | 0.00 | 36 | 1306.4 |
| 20260905222211 | 81 | 281 | 0.0 | 0.0 | 0.00 | 0.00 | 0.00 | 35 | 1306.7 |
| 20260905221707 | 81 | 265 | 0.0 | 0.0 | 0.00 | 0.00 | 0.00 | 33 | 1306.7 |
| 20260905221203 | 81 | 275 | 0.0 | 0.0 | 0.00 | 0.00 | 0.00 | 32 | 1306.4 |
| 20260905220658 | 80 | 274 | 0.0 | 0.0 | 0.00 | 0.00 | 0.00 | 35 | 1306.3 |
| 20260905220155 | 80 | 281 | 0.0 | 0.0 | 0.00 | 0.00 | 0.00 | 34 | 1306.5 |
| 20260905215649 | 80 | 279 | 0.0 | 0.0 | 0.00 | 0.00 | 0.00 | 37 | 1306.3 |
| 20260905215144 | 80 | 277 | 0.0 | 0.0 | 0.00 | 0.00 | 0.00 | 37 | 1306.4 |
| 20260905214640 | 80 | 281 | 0.0 | 0.0 | 0.00 | 0.00 | 0.00 | 36 | 1306.5 |
| 20260905214135 | 80 | 274 | 0.0 | 0.0 | 0.00 | 0.00 | 0.00 | 32 | 1306.5 |